createdAt,value
2023-12-28T00:00:26.596Z,122.82
2023-12-28T00:03:31.004Z,188.55
2023-12-28T00:06:34.161Z,232.70
2023-12-28T00:09:37.807Z,242.48
2023-12-28T00:12:41.950Z,223.35
2023-12-28T00:15:45.069Z,175.55
2023-12-28T00:18:48.163Z,167.57
2023-12-28T00:21:51.406Z,87.00
2023-12-28T00:24:54.864Z,161.82
2023-12-28T00:27:58.958Z,187.37
2023-12-28T00:31:03.090Z,222.65
2023-12-28T00:34:07.229Z,182.07
2023-12-28T00:37:11.184Z,201.80
2023-12-28T00:40:14.777Z,203.80
2023-12-28T00:43:18.375Z,178.65
2023-12-28T00:46:22.197Z,189.48
2023-12-28T00:49:26.186Z,165.70
2023-12-28T00:52:31.036Z,116.50
2023-12-28T00:55:34.713Z,84.93
2023-12-28T00:58:42.438Z,158.67
2023-12-28T01:01:46.298Z,187.45
2023-12-28T01:04:49.856Z,220.43
2023-12-28T01:07:53.639Z,72.70
2023-12-28T01:10:57.400Z,72.88
2023-12-28T01:14:01.085Z,127.28
2023-12-28T01:17:05.351Z,104.95
2023-12-28T01:20:08.809Z,58.67
2023-12-28T01:23:11.818Z,65.43
2023-12-28T01:26:18.826Z,97.57
2023-12-28T01:29:22.366Z,84.83
2023-12-28T01:32:25.330Z,145.38
2023-12-28T01:35:29.221Z,46.03
2023-12-28T01:38:32.938Z,155.05
2023-12-28T01:41:37.059Z,59.50
2023-12-28T01:44:40.074Z,35.97
2023-12-28T01:47:44.870Z,47.67
2023-12-28T01:50:49.042Z,127.60
2023-12-28T01:53:55.391Z,65.40
2023-12-28T01:57:01.000Z,70.70
2023-12-28T02:00:06.284Z,119.43
2023-12-28T02:03:19.817Z,94.55
2023-12-28T02:06:26.586Z,65.30
2023-12-28T02:09:29.691Z,163.00
2023-12-28T02:12:33.139Z,95.53
2023-12-28T02:15:36.509Z,87.00
2023-12-28T02:18:48.612Z,98.30
2023-12-28T02:21:53.060Z,112.37
2023-12-28T02:25:15.566Z,138.65
2023-12-28T02:28:19.308Z,102.65
2023-12-28T02:31:41.578Z,166.63
2023-12-28T02:34:48.700Z,130.23
2023-12-28T02:37:55.478Z,87.13
2023-12-28T02:41:00.844Z,83.47
2023-12-28T02:44:04.559Z,227.50
2023-12-28T02:47:07.653Z,123.85
2023-12-28T02:50:10.695Z,136.35
2023-12-28T02:53:15.169Z,260.67
2023-12-28T02:56:18.917Z,179.93
2023-12-28T02:59:22.994Z,238.20
2023-12-28T03:02:26.850Z,262.87
2023-12-28T03:05:30.057Z,145.75
2023-12-28T03:08:34.077Z,293.88
2023-12-28T03:11:36.875Z,309.38
2023-12-28T03:14:40.611Z,304.95
2023-12-28T03:17:44.868Z,202.43
2023-12-28T03:21:13.569Z,199.70
2023-12-28T03:24:17.137Z,287.27
2023-12-28T03:27:20.268Z,257.85
2023-12-28T03:30:23.402Z,347.92
2023-12-28T03:33:27.531Z,106.50
2023-12-28T03:36:31.195Z,250.88
2023-12-28T03:39:59.657Z,291.65
2023-12-28T03:43:05.581Z,352.05
2023-12-28T03:46:09.224Z,364.88
2023-12-28T03:49:12.464Z,172.52
2023-12-28T03:52:15.966Z,322.58
2023-12-28T03:55:19.715Z,338.40
2023-12-28T03:58:23.642Z,322.88
2023-12-28T04:01:29.510Z,286.25
2023-12-28T04:04:32.668Z,274.33
2023-12-28T04:07:36.719Z,258.88
2023-12-28T04:10:40.262Z,359.42
2023-12-28T04:13:43.237Z,282.60
2023-12-28T04:16:47.502Z,363.33
2023-12-28T04:19:51.656Z,405.02
2023-12-28T04:22:55.855Z,359.95
2023-12-28T04:26:00.739Z,377.73
2023-12-28T04:29:04.975Z,427.70
2023-12-28T04:32:09.394Z,444.23
2023-12-28T04:35:12.833Z,414.90
2023-12-28T04:38:17.088Z,335.13
2023-12-28T04:41:20.851Z,420.20
2023-12-28T04:44:24.265Z,355.73
2023-12-28T04:47:27.303Z,354.75
2023-12-28T04:50:30.718Z,317.33
2023-12-28T04:53:35.526Z,405.63
2023-12-28T04:56:39.084Z,366.90
2023-12-28T04:59:42.514Z,375.83
2023-12-28T05:02:46.124Z,171.73
2023-12-28T05:05:50.104Z,319.60
2023-12-28T05:08:54.302Z,307.75
2023-12-28T05:11:57.412Z,364.08
2023-12-28T05:15:00.752Z,367.77
2023-12-28T05:18:29.080Z,337.05
2023-12-28T05:21:32.843Z,278.27
2023-12-28T05:24:37.048Z,314.48
2023-12-28T05:27:41.665Z,278.47
2023-12-28T05:30:45.695Z,267.48
2023-12-28T05:33:52.206Z,324.67
2023-12-28T05:36:56.683Z,214.83
2023-12-28T05:40:00.670Z,242.00
2023-12-28T05:43:05.352Z,196.90
2023-12-28T05:46:08.341Z,271.75
2023-12-28T05:49:11.910Z,340.88
2023-12-28T05:52:20.603Z,300.52
2023-12-28T05:55:24.706Z,237.63
2023-12-28T05:58:27.726Z,242.37
2023-12-28T06:01:31.428Z,175.15
2023-12-28T06:04:35.795Z,202.45
2023-12-28T06:07:38.913Z,212.97
2023-12-28T06:10:42.075Z,217.15
2023-12-28T06:13:45.254Z,154.60
2023-12-28T06:16:48.282Z,178.73
2023-12-28T06:19:51.871Z,144.23
2023-12-28T06:22:57.619Z,153.80
2023-12-28T06:26:07.519Z,169.85
2023-12-28T06:29:15.191Z,184.07
2023-12-28T06:32:22.289Z,183.60
2023-12-28T06:35:29.564Z,204.65
2023-12-28T06:38:33.470Z,306.03
2023-12-28T06:41:37.041Z,271.30
2023-12-28T06:44:40.265Z,220.95
2023-12-28T06:47:43.842Z,349.85
2023-12-28T06:50:47.036Z,290.08
2023-12-28T06:53:51.604Z,228.43
2023-12-28T06:56:54.595Z,269.42
2023-12-28T07:00:01.470Z,262.43
2023-12-28T07:03:05.468Z,276.20
2023-12-28T07:06:10.688Z,248.10
2023-12-28T07:09:16.328Z,277.83
2023-12-28T07:12:22.132Z,268.05
2023-12-28T07:15:26.813Z,251.25
2023-12-28T07:18:30.812Z,284.25
2023-12-28T07:21:34.656Z,275.17
2023-12-28T07:24:38.450Z,293.65
2023-12-28T07:27:41.649Z,270.50
2023-12-28T07:30:45.459Z,241.10
2023-12-28T07:34:00.226Z,260.77
2023-12-28T07:37:06.755Z,293.10
2023-12-28T07:40:10.127Z,284.13
2023-12-28T07:43:13.192Z,298.40
2023-12-28T07:46:16.328Z,320.70
2023-12-28T07:49:19.705Z,295.15
2023-12-28T07:52:23.450Z,231.25
2023-12-28T07:55:27.833Z,180.10
2023-12-28T07:58:30.759Z,226.20
2023-12-28T08:01:35.292Z,230.13
2023-12-28T08:04:39.282Z,220.63
2023-12-28T08:07:42.814Z,231.15
2023-12-28T08:10:48.444Z,218.93
2023-12-28T08:13:52.811Z,177.45
2023-12-28T08:16:59.583Z,220.27
2023-12-28T08:20:03.620Z,198.43
2023-12-28T08:23:17.195Z,195.73
2023-12-28T08:26:25.509Z,195.10
2023-12-28T08:29:29.078Z,200.70
2023-12-28T08:32:33.518Z,215.03
2023-12-28T08:35:37.441Z,202.77
2023-12-28T08:38:41.558Z,161.98
2023-12-28T08:41:45.299Z,233.27
2023-12-28T08:44:52.602Z,222.43
2023-12-28T08:47:57.134Z,222.82
2023-12-28T08:51:02.968Z,248.90
2023-12-28T08:54:10.902Z,223.50
2023-12-28T08:57:16.231Z,228.10
2023-12-28T09:00:20.013Z,245.05
2023-12-28T09:03:25.108Z,350.20
2023-12-28T09:06:28.736Z,208.27
2023-12-28T09:09:32.480Z,364.70
2023-12-28T09:12:36.494Z,408.33
2023-12-28T09:15:41.240Z,397.20
2023-12-28T09:18:46.042Z,264.27
2023-12-28T09:21:49.790Z,314.55
2023-12-28T09:24:54.142Z,370.03
2023-12-28T09:27:58.308Z,386.35
2023-12-28T09:31:06.289Z,401.85
2023-12-28T09:34:10.247Z,366.63
2023-12-28T09:37:14.101Z,414.65
2023-12-28T09:40:17.374Z,289.67
2023-12-28T09:43:27.260Z,266.70
2023-12-28T09:46:30.853Z,326.52
2023-12-28T09:49:35.277Z,319.80
2023-12-28T09:52:38.323Z,266.40
2023-12-28T09:55:43.101Z,314.40
2023-12-28T09:58:50.558Z,295.55
2023-12-28T10:01:57.336Z,341.05
2023-12-28T10:05:01.149Z,353.13
2023-12-28T10:08:05.774Z,330.05
2023-12-28T10:11:12.877Z,367.77
2023-12-28T10:14:16.721Z,353.40
2023-12-28T10:17:20.634Z,445.60
2023-12-28T10:20:24.318Z,465.00
2023-12-28T10:23:27.559Z,504.00
2023-12-28T10:26:32.267Z,443.20
2023-12-28T10:29:36.431Z,406.33
2023-12-28T10:32:44.214Z,450.33
2023-12-28T10:35:48.426Z,406.43
2023-12-28T10:38:55.319Z,415.00
2023-12-28T10:42:01.506Z,443.23
2023-12-28T10:45:09.615Z,420.02
2023-12-28T10:48:14.648Z,275.65
2023-12-28T10:51:22.597Z,401.45
2023-12-28T10:54:34.054Z,483.90
2023-12-28T10:57:57.707Z,449.77
2023-12-28T11:01:06.895Z,470.83
2023-12-28T11:04:40.967Z,410.65
2023-12-28T11:07:45.713Z,396.80
2023-12-28T11:10:53.028Z,382.88
2023-12-28T11:13:57.925Z,352.95
2023-12-28T11:17:03.628Z,451.02
2023-12-28T11:20:08.387Z,410.45
2023-12-28T11:23:14.083Z,217.38
2023-12-28T11:26:22.561Z,196.60
2023-12-28T11:29:34.299Z,308.57
2023-12-28T11:32:38.668Z,279.50
2023-12-28T11:35:43.141Z,309.52
2023-12-28T11:38:47.205Z,340.57
2023-12-28T11:42:14.415Z,393.67
2023-12-28T11:45:19.537Z,439.48
2023-12-28T11:48:28.764Z,306.50
2023-12-28T11:51:33.668Z,210.20
2023-12-28T11:54:40.581Z,311.60
2023-12-28T11:57:44.288Z,322.95
2023-12-28T12:00:49.764Z,375.87
2023-12-28T12:03:53.433Z,470.08
2023-12-28T12:07:09.613Z,158.43
2023-12-28T12:10:17.819Z,459.77
2023-12-28T12:13:21.203Z,549.75
2023-12-28T12:16:27.773Z,574.33
2023-12-28T12:19:32.299Z,361.63
2023-12-28T12:22:35.917Z,490.10
2023-12-28T12:25:43.209Z,533.67
2023-12-28T12:28:46.679Z,505.13
2023-12-28T12:31:54.741Z,520.47
2023-12-28T12:34:59.154Z,374.38
2023-12-28T12:38:02.965Z,482.35
2023-12-28T12:41:06.172Z,386.30
2023-12-28T12:44:12.315Z,385.65
2023-12-28T12:47:16.627Z,223.10
2023-12-28T12:50:22.027Z,461.90
2023-12-28T12:53:25.851Z,587.05
2023-12-28T12:56:31.839Z,149.65
2023-12-28T12:59:36.175Z,221.02
2023-12-28T13:02:42.626Z,526.03
2023-12-28T13:05:46.549Z,382.20
2023-12-28T13:08:51.285Z,382.50
2023-12-28T13:11:54.601Z,358.37
2023-12-28T13:15:01.302Z,202.52
2023-12-28T13:18:05.647Z,164.98
2023-12-28T13:21:12.218Z,406.48
2023-12-28T13:24:22.594Z,169.73
2023-12-28T13:27:27.660Z,393.27
2023-12-28T13:30:31.953Z,222.52
2023-12-28T13:33:50.774Z,289.43
2023-12-28T13:37:09.726Z,133.45
2023-12-28T13:40:17.819Z,239.73
2023-12-28T13:45:15.393Z,278.67
2023-12-28T13:48:31.924Z,277.77
2023-12-28T13:51:48.847Z,154.00
2023-12-28T13:54:53.484Z,243.18
2023-12-28T13:57:57.769Z,366.25
2023-12-28T14:01:06.117Z,317.58
2023-12-28T14:04:10.785Z,350.25
2023-12-28T14:07:17.477Z,254.90
2023-12-28T14:10:21.135Z,307.95
2023-12-28T14:13:25.001Z,417.05
2023-12-28T14:16:29.289Z,230.73
2023-12-28T14:19:33.997Z,426.13
2023-12-28T14:22:38.564Z,394.20
2023-12-28T14:25:41.988Z,485.27
2023-12-28T14:28:46.885Z,367.85
2023-12-28T14:31:50.691Z,472.63
2023-12-28T14:34:54.476Z,256.00
2023-12-28T14:37:58.777Z,319.80
2023-12-28T14:41:03.520Z,326.33
2023-12-28T14:44:07.199Z,321.65
2023-12-28T14:47:15.766Z,346.73
2023-12-28T14:50:18.995Z,239.57
2023-12-28T14:53:25.667Z,356.02
2023-12-28T14:56:36.460Z,409.70
2023-12-28T14:59:48.233Z,304.58
2023-12-28T15:02:51.367Z,246.88
2023-12-28T15:05:54.778Z,321.30
2023-12-28T15:08:57.791Z,291.93
2023-12-28T15:12:01.186Z,336.60
2023-12-28T15:15:05.584Z,389.48
2023-12-28T15:18:12.424Z,346.73
2023-12-28T15:21:16.439Z,280.13
2023-12-28T15:24:23.195Z,340.35
2023-12-28T15:27:26.846Z,229.82
2023-12-28T15:30:30.455Z,330.25
2023-12-28T15:33:33.476Z,246.50
2023-12-28T15:36:36.916Z,142.05
2023-12-28T15:39:40.199Z,325.03
2023-12-28T15:42:45.789Z,249.25
2023-12-28T15:45:51.378Z,144.90
2023-12-28T15:48:55.712Z,138.00
2023-12-28T15:52:00.063Z,185.60
2023-12-28T15:55:04.630Z,119.70
2023-12-28T15:58:07.855Z,139.80
2023-12-28T16:01:11.757Z,183.27
2023-12-28T16:04:14.859Z,185.38
2023-12-28T16:07:19.014Z,199.32
2023-12-28T16:10:22.927Z,184.60
2023-12-28T16:13:26.698Z,141.02
2023-12-28T16:16:30.032Z,277.23
2023-12-28T16:19:34.073Z,125.73
2023-12-28T16:22:37.800Z,123.45
2023-12-28T16:25:41.144Z,190.02
2023-12-28T16:28:44.585Z,146.48
2023-12-28T16:31:47.487Z,199.25
2023-12-28T16:34:50.574Z,78.38
2023-12-28T16:37:54.862Z,97.68
2023-12-28T16:40:58.622Z,152.63
2023-12-28T16:44:01.859Z,244.82
2023-12-28T16:47:06.021Z,194.88
2023-12-28T16:50:09.485Z,110.43
2023-12-28T16:53:13.862Z,103.10
2023-12-28T16:56:17.961Z,123.07
2023-12-28T16:59:22.174Z,168.20
2023-12-28T17:02:25.818Z,82.20
2023-12-28T17:05:29.734Z,104.40
2023-12-28T17:08:33.661Z,111.55
2023-12-28T17:11:37.382Z,235.20
2023-12-28T17:14:40.582Z,178.45
2023-12-28T17:17:44.241Z,108.53
2023-12-28T17:20:48.263Z,113.27
2023-12-28T17:23:54.277Z,102.10
2023-12-28T17:27:08.097Z,150.43
2023-12-28T17:30:17.083Z,190.52
2023-12-28T17:33:23.707Z,229.73
2023-12-28T17:36:28.847Z,102.15
2023-12-28T17:39:32.105Z,126.70
2023-12-28T17:42:40.031Z,179.23
2023-12-28T17:45:50.307Z,117.43
2023-12-28T17:48:57.365Z,89.32
2023-12-28T17:52:06.402Z,83.20
2023-12-28T17:55:10.853Z,152.07
2023-12-28T17:58:15.070Z,123.97
2023-12-28T18:01:19.441Z,68.47
2023-12-28T18:04:23.612Z,53.08
2023-12-28T18:07:27.316Z,135.98
2023-12-28T18:10:31.598Z,119.72
2023-12-28T18:13:35.321Z,47.47
2023-12-28T18:16:39.622Z,104.72
2023-12-28T18:19:43.417Z,154.55
2023-12-28T18:22:47.449Z,154.97
2023-12-28T18:25:51.160Z,108.43
2023-12-28T18:28:54.618Z,201.65
2023-12-28T18:31:58.635Z,81.78
2023-12-28T18:35:02.249Z,80.05
2023-12-28T18:38:06.379Z,70.00
2023-12-28T18:41:09.355Z,137.50
2023-12-28T18:44:13.256Z,134.47
2023-12-28T18:47:17.262Z,176.63
2023-12-28T18:50:21.969Z,111.25
2023-12-28T18:53:25.638Z,177.93
2023-12-28T18:56:28.932Z,87.47
2023-12-28T18:59:32.036Z,95.88
2023-12-28T19:02:35.805Z,138.23
2023-12-28T19:05:40.205Z,89.20
2023-12-28T19:08:44.172Z,98.53
2023-12-28T19:11:47.017Z,93.38
2023-12-28T19:14:50.978Z,115.83
2023-12-28T19:17:54.516Z,139.85
2023-12-28T19:20:59.870Z,106.10
2023-12-28T19:24:02.909Z,130.37
2023-12-28T19:27:06.695Z,62.13
2023-12-28T19:30:10.520Z,86.45
2023-12-28T19:33:13.963Z,122.57
2023-12-28T19:36:17.066Z,70.47
2023-12-28T19:39:22.146Z,77.57
2023-12-28T19:42:25.970Z,72.53
2023-12-28T19:45:30.134Z,58.47
2023-12-28T19:48:33.884Z,117.45
2023-12-28T19:51:38.117Z,38.90
2023-12-28T19:54:41.213Z,82.70
2023-12-28T19:57:45.020Z,128.82
2023-12-28T20:00:48.190Z,45.70
2023-12-28T20:03:51.971Z,113.82
2023-12-28T20:06:56.601Z,88.07
2023-12-28T20:10:01.317Z,124.50
2023-12-28T20:13:04.590Z,82.50
2023-12-28T20:16:08.930Z,66.03
2023-12-28T20:19:13.714Z,101.78
2023-12-28T20:22:17.656Z,61.65
2023-12-28T20:25:21.598Z,65.77
2023-12-28T20:28:24.833Z,65.95
2023-12-28T20:31:30.507Z,59.88
2023-12-28T20:34:33.720Z,64.63
2023-12-28T20:37:37.631Z,34.25
2023-12-28T20:40:41.329Z,89.28
2023-12-28T20:43:48.331Z,30.77
2023-12-28T20:46:52.216Z,58.97
2023-12-28T20:49:55.321Z,48.38
2023-12-28T20:52:59.292Z,38.65
2023-12-28T20:56:03.570Z,70.90
2023-12-28T20:59:07.213Z,58.47
2023-12-28T21:02:10.186Z,56.13
2023-12-28T21:05:14.000Z,58.45
2023-12-28T21:08:17.755Z,60.88
2023-12-28T21:11:20.998Z,39.45
2023-12-28T21:14:25.536Z,46.95
2023-12-28T21:17:29.164Z,53.20
2023-12-28T21:20:32.899Z,50.35
2023-12-28T21:23:36.639Z,78.10
2023-12-28T21:26:40.736Z,71.80
2023-12-28T21:29:43.748Z,56.60
2023-12-28T21:32:47.460Z,58.90
2023-12-28T21:35:51.290Z,46.55
2023-12-28T21:38:54.546Z,36.72
2023-12-28T21:41:57.627Z,30.45
2023-12-28T21:45:03.746Z,53.65
2023-12-28T21:48:08.655Z,62.17
2023-12-28T21:51:12.729Z,48.08
2023-12-28T21:54:16.886Z,36.85
2023-12-28T21:57:20.608Z,97.33
2023-12-28T22:00:24.316Z,43.58
2023-12-28T22:03:28.255Z,76.70
2023-12-28T22:06:32.151Z,49.28
2023-12-28T22:09:37.805Z,44.55
2023-12-28T22:12:40.739Z,80.15
2023-12-28T22:15:44.264Z,68.97
2023-12-28T22:18:48.652Z,63.07
2023-12-28T22:21:53.460Z,65.15
2023-12-28T22:24:56.586Z,45.80
2023-12-28T22:28:00.251Z,71.53
2023-12-28T22:31:04.051Z,65.30
2023-12-28T22:34:07.904Z,58.47
2023-12-28T22:37:11.187Z,54.00
2023-12-28T22:40:15.375Z,75.93
2023-12-28T22:43:18.850Z,57.35
2023-12-28T22:46:22.669Z,48.85
2023-12-28T22:49:25.840Z,47.57
2023-12-28T22:52:29.024Z,39.28
2023-12-28T22:55:32.676Z,30.08
2023-12-28T22:58:36.417Z,26.97
2023-12-28T23:01:40.569Z,55.63
2023-12-28T23:04:52.441Z,31.27
2023-12-28T23:07:59.324Z,121.07
2023-12-28T23:11:05.245Z,46.08
2023-12-28T23:14:09.016Z,106.05
2023-12-28T23:17:13.197Z,69.80
2023-12-28T23:20:16.900Z,34.87
2023-12-28T23:23:19.863Z,57.92
2023-12-28T23:26:23.829Z,88.10
2023-12-28T23:29:26.642Z,80.17
2023-12-28T23:32:30.413Z,63.90
2023-12-28T23:35:34.627Z,36.95
2023-12-28T23:38:38.300Z,63.95
2023-12-28T23:41:42.384Z,73.40
2023-12-28T23:44:45.418Z,50.65
2023-12-28T23:47:49.524Z,23.48
2023-12-28T23:50:53.182Z,31.13
2023-12-28T23:53:57.272Z,46.53
2023-12-28T23:57:03.273Z,35.63
